Castres-Mazamet Airport

LFCK · Tarn, Occitanie, 法国

2024年4月13日 20:002024年4月14日 05:00有效
时间
星期六
20:00
星期六
21:00
星期六
22:00
星期六
23:00
星期日
00:00
星期日
01:00
星期日
02:00
星期日
03:00
星期日
04:00
代码
VFR
VFR
VFR
VFR
VFR
VFR
VFR
VFR
VFR
天气
天空晴朗
天空晴朗
天空晴朗
天空晴朗
天空晴朗
天空晴朗
天空晴朗
天空晴朗
天空晴朗
能见度
10 km+
10 km+
10 km+
10 km+
10 km+
10 km+
10 km+
10 km+
10 km+
天花板
-
-
-
-
-
-
-
-
-
Var
Var
Var
Var
Var
Var
Var
Var
Var
Var
Var
Var
Var
Var
Var
Var
Var
Var
速度
3 kt
3 kt
3 kt
3 kt
3 kt
3 kt
3 kt
3 kt
3 kt
阵风
温度/星期日
20:31

原版的

TAF LFCK 131700Z 1318/1403 VRB03KT CAVOK

TAF Castres-Mazamet Airport

Castres-Mazamet Airport是,法国中的中型机场。 该机场位于纬度43,55630和经度2,28918。 该机场有一条跑道: 14/32. 本场的ICAO机场代码为LFCK。 该机场的IATA代码为DCM。 机场在Bordeaux FIR中。

该航空气象观测是针对Castres-Mazamet Airport在2024年4月13日 19:00, 当地时间进行的。 从2024年4月13日 20:00到2024年4月14日 05:00, 当地时间有效.

预报

  • 在星期六 20:00和星期日 05:00之间

    • 风: 可变方向的风很小或没有。
    • CAVOK: 天气为CAVOK。这意味着在5.000 ft或MSA(最低安全高度)以下(以较高者为准)以下没有云。这也意味着没有观测到积雨云或高耸的积云,可见度为10 km 或者更多或更高。此外,不会有雾,降雨或其他重要天气。

白天

今天,太阳从07:10升起,在20:31降落。 这适用于Castres-Mazamet Airport,世界夏令时可能有所不同。 当地时间与世界标准时间之间的时差为+2 小时。 夏令时目前正在进行中。

报告变更